BF-0002 weather

Houndé Airport
Houndé, Tui, Burkina Faso

Public forecast

Using degrees Celsius for public forecast. Weather courtesy of forecast.io.

METAR (pilot weather report)

Closest report is Bobo Dioulasso Airport, 50.6 nm (93.7 km) WSW. Retrieved 2019/03/19 18:00 UTC (36 minutes ago):

DFOO 191800Z 00000KT 8000 NSC 34/19 Q1008

TAF (pilot weather forecast)

Closest forecast is Bobo Dioulasso Airport, 50.6 nm (93.7 km) WSW. Retrieved 2019/03/19 18:21 UTC (15 minutes ago):

TAF DFOO 191700Z 1918/2018 22008KT 8000 FEW020 TEMPO 1918/2002 4000 TSRA SCT020 FEW036CB